Rockford, IL (61101)

8:28 AM CDT on August 27, 2016 (GMT -0500)
Downtown | | Change Station

Elev 728 ft 42.27 °N, 89.09 °W | Updated 7 minutes ago

Overcast
Overcast
67.5 °F
Feels Like 67.5 °F
N
1.2
Wind Variable Wind from SSE
Gusts 3.1 mph

Today
High -- | Low -- °F
--% Chance of Precip.
Yesterday
High -- | Low -- °F
Precip. -- in
Pressure 30.08 in
Visibility 10.0 miles
Clouds Overcast 800 ft
Dew Point 62 °F
Humidity 84%
Rainfall 0.07 in
Snow Depth Not available.
6:17 AM 7:37 PM
Waning Crescent, 24% visible
METAR KRFD 271254Z 00000KT 10SM OVC008 19/18 A3009 RMK AO2 RAE08 SLP186 P0000 T01940183
Pressure 30.08 in
Visibility 10.0 miles
Clouds Overcast 800 ft
Dew Point 62 °F
Humidity 84%
Rainfall 0.07 in
Snow Depth Not available.
6:17 AM 7:37 PM
Waning Crescent, 24% visible
METAR KRFD 271254Z 00000KT 10SM OVC008 19/18 A3009 RMK AO2 RAE08 SLP186 P0000 T01940183

10-Day Weather Forecast

Almanac

Astronomy

Aug. 27, 2016 Rise Set
Actual Time
Civil Twilight
Nautical Twilight
Astronomical Twilight
Moon
Length of Visible Light
Length of Day
Tomorrow will be .
, % of the Moon is Illuminated

Today's Extremes

State Highs State Lows

Community

WunderPhotos

Upload Photos

1,935,337 photos uploaded!

WunderBlog® & News

Nearby

Air Quality

  Air Quality AQ Index Pollutant
Not available.

Snow Depth

Station Depth Elevation

Earthquake Activity

City Distance Mag. Time & Date
Minimum magnitude displayed is 2.5.

Coastal Water Temperatures

Place Temperature

Stations

Nearby Weather Stations

Station Location Temp. Windchill Dew Point Humidity Wind Precip. Elev Updated Type
                   

Watches & Warnings

There are currently no watches in effect.